createdAt,value
2018-09-25T00:01:39.761Z,91.67
2018-09-25T00:04:13.593Z,91.36
2018-09-25T00:06:47.251Z,91.10
2018-09-25T00:09:20.891Z,91.07
2018-09-25T00:11:54.740Z,91.51
2018-09-25T00:14:28.493Z,91.00
2018-09-25T00:17:02.092Z,91.32
2018-09-25T00:19:35.851Z,91.47
2018-09-25T00:22:09.821Z,91.53
2018-09-25T00:24:43.452Z,91.17
2018-09-25T00:27:17.214Z,91.28
2018-09-25T00:29:50.730Z,90.91
2018-09-25T00:32:24.406Z,91.08
2018-09-25T00:34:57.966Z,90.86
2018-09-25T00:37:31.668Z,90.80
2018-09-25T00:40:05.613Z,91.66
2018-09-25T00:42:39.356Z,91.24
2018-09-25T00:45:13.156Z,91.21
2018-09-25T00:47:46.982Z,90.98
2018-09-25T00:50:20.566Z,90.69
2018-09-25T00:52:54.301Z,91.84
2018-09-25T00:55:28.074Z,90.91
2018-09-25T00:58:01.929Z,91.12
2018-09-25T01:00:35.704Z,90.97
2018-09-25T01:03:09.271Z,90.88
2018-09-25T01:05:42.992Z,91.30
2018-09-25T01:08:16.562Z,90.78
2018-09-25T01:10:50.289Z,91.28
2018-09-25T01:13:24.058Z,90.73
2018-09-25T01:15:58.681Z,90.97
2018-09-25T01:18:32.301Z,90.98
2018-09-25T01:21:05.870Z,90.27
2018-09-25T01:23:39.413Z,90.43
2018-09-25T01:26:12.998Z,90.95
2018-09-25T01:28:46.657Z,91.10
2018-09-25T01:31:20.328Z,90.94
2018-09-25T01:33:53.943Z,90.80
2018-09-25T01:36:27.638Z,90.58
2018-09-25T01:39:01.524Z,90.83
2018-09-25T01:41:35.049Z,90.61
2018-09-25T01:44:09.192Z,90.86
2018-09-25T01:46:42.848Z,90.99
2018-09-25T01:49:16.483Z,90.79
2018-09-25T01:51:49.995Z,91.14
2018-09-25T01:54:23.780Z,90.90
2018-09-25T01:56:57.718Z,90.52
2018-09-25T01:59:31.537Z,91.06
2018-09-25T02:02:05.223Z,90.90
2018-09-25T02:04:39.149Z,90.86
2018-09-25T02:07:12.891Z,90.89
2018-09-25T02:09:46.732Z,90.33
2018-09-25T02:12:20.416Z,90.86
2018-09-25T02:14:54.267Z,90.52
2018-09-25T02:17:27.863Z,90.83
2018-09-25T02:20:01.329Z,90.52
2018-09-25T02:22:35.117Z,90.40
2018-09-25T02:25:08.671Z,90.77
2018-09-25T02:27:42.458Z,91.29
2018-09-25T02:30:16.117Z,90.79
2018-09-25T02:32:49.757Z,90.69
2018-09-25T02:35:23.437Z,90.49
2018-09-25T02:37:57.240Z,90.60
2018-09-25T02:40:30.975Z,90.77
2018-09-25T02:43:04.964Z,90.33
2018-09-25T02:45:38.534Z,90.21
2018-09-25T02:48:12.222Z,90.49
2018-09-25T02:50:45.976Z,90.43
2018-09-25T02:53:19.639Z,91.15
2018-09-25T02:55:53.521Z,90.57
2018-09-25T02:58:27.015Z,90.37
2018-09-25T03:01:00.733Z,90.29
2018-09-25T03:03:34.459Z,90.55
2018-09-25T03:06:08.215Z,90.38
2018-09-25T03:08:41.766Z,90.95
2018-09-25T03:11:15.523Z,90.43
2018-09-25T03:13:49.032Z,90.68
2018-09-25T03:16:22.854Z,90.44
2018-09-25T03:18:56.853Z,90.23
2018-09-25T03:21:30.593Z,89.95
2018-09-25T03:24:04.225Z,90.61
2018-09-25T03:26:37.938Z,90.51
2018-09-25T03:29:11.605Z,91.00
2018-09-25T03:31:45.142Z,90.75
2018-09-25T03:34:18.804Z,90.40
2018-09-25T03:36:52.524Z,90.23
2018-09-25T03:39:26.256Z,90.53
2018-09-25T03:42:01.469Z,90.39
2018-09-25T03:44:35.105Z,90.19
2018-09-25T03:47:08.618Z,90.58
2018-09-25T03:49:42.344Z,90.21
2018-09-25T03:52:15.972Z,90.50
2018-09-25T03:54:49.795Z,90.36
2018-09-25T03:57:23.479Z,90.53
2018-09-25T03:59:57.161Z,90.62
2018-09-25T04:02:31.027Z,90.50
2018-09-25T04:05:04.767Z,90.29
2018-09-25T04:07:38.537Z,90.46
2018-09-25T04:10:12.007Z,89.81
2018-09-25T04:12:45.829Z,89.61
2018-09-25T04:15:19.388Z,90.03
2018-09-25T04:17:52.984Z,90.11
2018-09-25T04:20:26.717Z,90.07
2018-09-25T04:23:00.415Z,90.54
2018-09-25T04:25:34.141Z,90.04
2018-09-25T04:28:08.197Z,89.94
2018-09-25T04:30:41.935Z,90.49
2018-09-25T04:33:15.590Z,90.37
2018-09-25T04:35:49.378Z,89.92
2018-09-25T04:38:23.140Z,89.69
2018-09-25T04:40:56.836Z,90.20
2018-09-25T04:43:30.593Z,90.17
2018-09-25T04:46:04.368Z,89.98
2018-09-25T04:48:38.180Z,90.23
2018-09-25T04:51:11.895Z,90.06
2018-09-25T04:53:45.346Z,89.96
2018-09-25T04:56:19.069Z,89.78
2018-09-25T04:58:52.847Z,89.88
2018-09-25T05:01:26.664Z,89.63
2018-09-25T05:04:00.285Z,89.86
2018-09-25T05:06:33.892Z,89.61
2018-09-25T05:09:07.616Z,89.91
2018-09-25T05:11:41.142Z,89.74
2018-09-25T05:14:14.903Z,89.70
2018-09-25T05:16:48.661Z,89.66
2018-09-25T05:19:22.265Z,89.93
2018-09-25T05:21:55.930Z,89.68
2018-09-25T05:24:29.521Z,89.46
2018-09-25T05:27:03.081Z,89.76
2018-09-25T05:29:36.673Z,90.15
2018-09-25T05:32:10.266Z,89.68
2018-09-25T05:34:44.182Z,89.89
2018-09-25T05:37:17.765Z,89.76
2018-09-25T05:39:51.443Z,89.75
2018-09-25T05:42:25.242Z,90.06
2018-09-25T05:44:58.808Z,90.05
2018-09-25T05:47:32.481Z,89.66
2018-09-25T05:50:06.259Z,89.78
2018-09-25T05:52:39.933Z,89.86
2018-09-25T05:55:13.694Z,89.96
2018-09-25T05:57:47.298Z,89.84
2018-09-25T06:00:21.447Z,89.71
2018-09-25T06:02:55.242Z,90.04
2018-09-25T06:05:28.923Z,89.65
2018-09-25T06:08:02.617Z,89.30
2018-09-25T06:10:36.206Z,89.74
2018-09-25T06:13:10.003Z,89.82
2018-09-25T06:15:50.673Z,89.68
2018-09-25T06:18:24.236Z,90.23
2018-09-25T06:20:57.803Z,90.04
2018-09-25T06:23:31.596Z,90.16
2018-09-25T06:26:05.205Z,90.55
2018-09-25T06:28:38.813Z,90.08
2018-09-25T06:31:12.385Z,90.19
2018-09-25T06:33:46.095Z,89.82
2018-09-25T06:36:19.849Z,89.96
2018-09-25T06:38:53.600Z,90.46
2018-09-25T06:41:27.377Z,90.17
2018-09-25T06:44:01.142Z,90.40
2018-09-25T06:46:35.016Z,90.89
2018-09-25T06:49:08.741Z,90.83
2018-09-25T06:51:42.262Z,90.81
2018-09-25T06:54:15.894Z,90.81
2018-09-25T06:56:49.665Z,90.46
2018-09-25T06:59:23.151Z,90.70
2018-09-25T07:01:56.698Z,90.83
2018-09-25T07:04:30.285Z,90.57
2018-09-25T07:07:03.830Z,90.71
2018-09-25T07:09:37.565Z,90.84
2018-09-25T07:12:11.285Z,90.92
2018-09-25T07:14:45.133Z,90.92
2018-09-25T07:17:18.662Z,91.37
2018-09-25T07:19:52.341Z,90.79
2018-09-25T07:22:26.236Z,90.58
2018-09-25T07:24:59.996Z,91.17
2018-09-25T07:27:33.699Z,90.79
2018-09-25T07:30:07.283Z,90.98
2018-09-25T07:32:40.881Z,91.05
2018-09-25T07:35:14.502Z,90.72
2018-09-25T07:37:48.279Z,90.65
2018-09-25T07:40:22.123Z,90.95
2018-09-25T07:42:55.673Z,91.25
2018-09-25T07:45:29.464Z,91.15
2018-09-25T07:48:03.124Z,91.31
2018-09-25T07:50:36.928Z,91.34
2018-09-25T07:53:10.606Z,91.16
2018-09-25T07:55:44.464Z,91.18
2018-09-25T07:58:18.167Z,90.80
2018-09-25T08:00:51.722Z,90.79
2018-09-25T08:03:25.526Z,90.76
2018-09-25T08:05:59.248Z,90.78
2018-09-25T08:08:32.982Z,89.96
2018-09-25T08:11:06.619Z,90.34
2018-09-25T08:13:41.430Z,90.25
2018-09-25T08:16:15.175Z,90.15
2018-09-25T08:18:48.965Z,89.10
2018-09-25T08:21:22.727Z,88.72
2018-09-25T08:23:56.339Z,89.14
2018-09-25T08:26:29.882Z,89.07
2018-09-25T08:29:03.595Z,89.17
2018-09-25T08:31:37.173Z,89.06
2018-09-25T08:34:10.942Z,88.33
2018-09-25T08:36:44.639Z,88.08
2018-09-25T08:39:18.414Z,88.53
2018-09-25T08:41:52.111Z,88.38
2018-09-25T08:44:25.846Z,87.94
2018-09-25T08:46:59.562Z,87.93
2018-09-25T08:49:33.212Z,87.91
2018-09-25T08:52:06.824Z,86.15
2018-09-25T08:54:40.454Z,86.78
2018-09-25T08:57:14.300Z,85.31
2018-09-25T08:59:48.212Z,84.10
2018-09-25T09:02:21.936Z,84.86
2018-09-25T09:04:55.683Z,84.06
2018-09-25T09:07:29.284Z,83.76
2018-09-25T09:10:03.051Z,83.43
2018-09-25T09:12:36.802Z,83.95
2018-09-25T09:15:10.751Z,83.76
2018-09-25T09:17:44.488Z,84.00
2018-09-25T09:20:18.033Z,82.89
2018-09-25T09:22:51.832Z,83.01
2018-09-25T09:25:25.352Z,82.18
2018-09-25T09:27:59.108Z,81.95
2018-09-25T09:30:32.798Z,81.53
2018-09-25T09:33:06.387Z,81.59
2018-09-25T09:35:40.160Z,80.06
2018-09-25T09:38:13.832Z,79.64
2018-09-25T09:40:47.492Z,79.47
2018-09-25T09:43:21.244Z,78.80
2018-09-25T09:45:54.823Z,77.94
2018-09-25T09:48:28.535Z,77.77
2018-09-25T09:51:02.108Z,77.84
2018-09-25T09:53:35.826Z,77.46
2018-09-25T09:56:09.652Z,77.65
2018-09-25T09:58:43.353Z,76.87
2018-09-25T10:01:16.881Z,75.73
2018-09-25T10:03:50.694Z,74.73
2018-09-25T10:06:24.871Z,74.22
2018-09-25T10:08:58.456Z,74.26
2018-09-25T10:11:32.287Z,72.68
2018-09-25T10:14:05.840Z,71.26
2018-09-25T10:16:39.421Z,71.87
2018-09-25T10:19:13.041Z,71.62
2018-09-25T10:21:46.735Z,70.67
2018-09-25T10:24:20.608Z,69.45
2018-09-25T10:26:54.781Z,71.29
2018-09-25T10:29:28.358Z,70.81
2018-09-25T10:35:38.982Z,69.65
2018-09-25T10:38:12.496Z,67.93
2018-09-25T10:40:46.296Z,67.92
2018-09-25T10:43:20.110Z,66.21
2018-09-25T10:45:53.905Z,66.40
2018-09-25T10:48:27.718Z,66.97
2018-09-25T10:51:01.515Z,67.00
2018-09-25T10:53:34.994Z,67.23
2018-09-25T10:56:08.544Z,66.76
2018-09-25T10:58:42.096Z,67.56
2018-09-25T11:01:16.791Z,67.93
2018-09-25T11:03:50.581Z,67.70
2018-09-25T11:06:24.150Z,66.39
2018-09-25T11:08:57.746Z,65.78
2018-09-25T11:11:31.589Z,64.84
2018-09-25T11:14:05.393Z,63.71
2018-09-25T11:16:39.124Z,63.83
2018-09-25T11:19:13.134Z,62.86
2018-09-25T11:21:47.258Z,62.93
2018-09-25T11:24:20.871Z,62.08
2018-09-25T11:26:54.621Z,61.57
2018-09-25T11:29:28.392Z,60.60
2018-09-25T11:32:02.111Z,59.89
2018-09-25T11:34:35.750Z,60.31
2018-09-25T11:37:09.592Z,60.39
2018-09-25T11:39:43.433Z,60.65
2018-09-25T11:42:17.269Z,60.20
2018-09-25T11:44:51.051Z,61.23
2018-09-25T11:47:24.691Z,61.31
2018-09-25T11:49:58.356Z,61.26
2018-09-25T11:52:32.056Z,60.26
2018-09-25T11:55:05.848Z,60.56
2018-09-25T11:57:39.610Z,59.74
2018-09-25T12:00:13.153Z,60.60
2018-09-25T12:02:46.750Z,60.43
2018-09-25T12:05:20.425Z,59.17
2018-09-25T12:07:54.280Z,57.31
2018-09-25T12:10:27.950Z,55.96
2018-09-25T12:13:01.697Z,55.94
2018-09-25T12:15:35.399Z,56.09
2018-09-25T12:18:09.770Z,56.04
2018-09-25T12:20:43.822Z,55.72
2018-09-25T12:23:17.528Z,55.29
2018-09-25T12:25:51.220Z,56.61
2018-09-25T12:28:24.947Z,57.03
2018-09-25T12:30:58.583Z,56.69
2018-09-25T12:33:32.338Z,56.92
2018-09-25T12:36:05.848Z,57.25
2018-09-25T12:38:39.383Z,56.32
2018-09-25T12:41:13.050Z,56.71
2018-09-25T12:43:46.842Z,57.40
2018-09-25T12:46:20.372Z,56.53
2018-09-25T12:48:54.069Z,57.19
2018-09-25T12:51:27.686Z,57.04
2018-09-25T12:54:01.461Z,57.68
2018-09-25T12:56:35.108Z,58.41
2018-09-25T12:59:08.596Z,58.36
2018-09-25T13:01:42.156Z,58.05
2018-09-25T13:04:15.795Z,58.29
2018-09-25T13:06:49.460Z,57.76
2018-09-25T13:09:23.206Z,57.64
2018-09-25T13:11:56.984Z,57.64
2018-09-25T13:14:30.448Z,57.28
2018-09-25T13:17:04.259Z,56.64
2018-09-25T13:19:37.799Z,57.09
2018-09-25T13:22:11.545Z,57.75
2018-09-25T13:24:45.281Z,58.18
2018-09-25T13:27:18.833Z,57.67
2018-09-25T13:29:52.549Z,58.32
2018-09-25T13:32:26.286Z,58.10
2018-09-25T13:35:01.079Z,57.45
2018-09-25T13:37:34.820Z,57.20
2018-09-25T13:40:08.467Z,56.37
2018-09-25T13:42:42.306Z,56.81
2018-09-25T13:45:15.768Z,56.11
2018-09-25T13:47:49.668Z,56.24
2018-09-25T13:50:23.305Z,55.22
2018-09-25T13:52:56.690Z,55.47
2018-09-25T13:55:30.416Z,54.42
2018-09-25T13:58:04.079Z,55.41
2018-09-25T14:00:37.803Z,54.26
2018-09-25T14:03:11.369Z,56.07
2018-09-25T14:05:45.083Z,56.12
2018-09-25T14:08:18.585Z,55.58
2018-09-25T14:10:52.244Z,56.02
2018-09-25T14:13:26.156Z,54.82
2018-09-25T14:15:59.804Z,54.01
2018-09-25T14:18:33.689Z,54.04
2018-09-25T14:21:07.351Z,54.03
2018-09-25T14:23:40.989Z,54.63
2018-09-25T14:26:14.697Z,54.42
2018-09-25T14:28:49.058Z,54.34
2018-09-25T14:31:22.692Z,54.30
2018-09-25T14:33:56.254Z,53.69
2018-09-25T14:36:32.776Z,54.19
2018-09-25T14:39:06.462Z,53.77
2018-09-25T14:41:40.121Z,53.41
2018-09-25T14:44:13.704Z,53.09
2018-09-25T14:46:47.469Z,53.72
2018-09-25T14:49:23.212Z,54.26
2018-09-25T14:51:56.934Z,54.71
2018-09-25T14:54:30.781Z,54.76
2018-09-25T14:57:04.464Z,54.68
2018-09-25T14:59:37.963Z,54.39
2018-09-25T15:02:11.495Z,54.52
2018-09-25T15:04:45.309Z,53.62
2018-09-25T15:07:19.164Z,54.62
2018-09-25T15:09:52.732Z,54.67
2018-09-25T15:12:26.378Z,54.96
2018-09-25T15:15:00.021Z,53.09
2018-09-25T15:17:33.537Z,54.55
2018-09-25T15:20:07.213Z,54.91
2018-09-25T15:22:41.084Z,54.92
2018-09-25T15:25:14.617Z,54.56
2018-09-25T15:27:49.366Z,54.56
2018-09-25T15:30:22.990Z,53.78
2018-09-25T15:32:56.750Z,54.64
2018-09-25T15:35:30.478Z,54.13
2018-09-25T15:38:03.943Z,54.76
2018-09-25T15:40:37.667Z,56.78
2018-09-25T15:43:11.460Z,56.34
2018-09-25T15:45:45.076Z,55.13
2018-09-25T15:48:18.920Z,56.48
2018-09-25T15:50:52.736Z,57.49
2018-09-25T15:53:26.406Z,56.73
2018-09-25T15:56:00.239Z,57.02
2018-09-25T15:58:34.046Z,56.04
2018-09-25T16:01:07.830Z,56.72
2018-09-25T16:03:41.411Z,56.30
2018-09-25T16:06:15.029Z,56.53
2018-09-25T16:08:48.792Z,56.88
2018-09-25T16:11:22.363Z,56.92
2018-09-25T16:13:56.024Z,57.98
2018-09-25T16:16:29.661Z,58.15
2018-09-25T16:19:03.239Z,58.39
2018-09-25T16:21:36.908Z,59.81
2018-09-25T16:24:10.798Z,60.38
2018-09-25T16:26:44.505Z,61.08
2018-09-25T16:29:18.136Z,60.68
2018-09-25T16:31:51.685Z,61.01
2018-09-25T16:34:25.501Z,61.70
2018-09-25T16:36:59.107Z,62.30
2018-09-25T16:39:32.782Z,62.78
2018-09-25T16:42:06.356Z,64.24
2018-09-25T16:44:40.099Z,63.60
2018-09-25T16:47:14.047Z,65.35
2018-09-25T16:49:47.735Z,64.95
2018-09-25T16:52:21.401Z,65.65
2018-09-25T16:54:55.072Z,65.68
2018-09-25T16:57:28.771Z,67.50
2018-09-25T17:00:02.359Z,67.50
2018-09-25T17:02:36.002Z,67.31
2018-09-25T17:05:09.518Z,67.19
2018-09-25T17:07:43.006Z,66.47
2018-09-25T17:10:16.809Z,67.09
2018-09-25T17:12:50.531Z,67.07
2018-09-25T17:15:24.224Z,68.39
2018-09-25T17:17:57.951Z,69.46
2018-09-25T17:20:31.517Z,70.41
2018-09-25T17:23:04.995Z,71.47
2018-09-25T17:25:38.564Z,72.23
2018-09-25T17:28:12.346Z,72.66
2018-09-25T17:30:45.838Z,73.42
2018-09-25T17:33:19.677Z,74.52
2018-09-25T17:35:53.278Z,75.17
2018-09-25T17:38:26.926Z,75.27
2018-09-25T17:41:00.479Z,76.06
2018-09-25T17:43:34.084Z,76.37
2018-09-25T17:46:07.822Z,75.95
2018-09-25T17:48:41.554Z,76.62
2018-09-25T17:51:15.143Z,76.12
2018-09-25T17:53:48.973Z,76.62
2018-09-25T17:56:22.786Z,76.50
2018-09-25T17:58:56.921Z,76.70
2018-09-25T18:01:30.664Z,77.21
2018-09-25T18:04:04.225Z,77.26
2018-09-25T18:06:38.002Z,77.85
2018-09-25T18:09:13.947Z,77.81
2018-09-25T18:11:47.758Z,78.37
2018-09-25T18:14:21.443Z,78.67
2018-09-25T18:16:55.104Z,79.03
2018-09-25T18:19:28.600Z,78.82
2018-09-25T18:22:02.249Z,78.74
2018-09-25T18:24:35.914Z,79.10
2018-09-25T18:27:09.511Z,79.59
2018-09-25T18:29:43.024Z,79.92
2018-09-25T18:32:17.122Z,80.00
2018-09-25T18:34:50.674Z,79.43
2018-09-25T18:37:24.470Z,79.83
2018-09-25T18:39:57.961Z,80.86
2018-09-25T18:42:31.451Z,81.05
2018-09-25T18:45:05.067Z,80.86
2018-09-25T18:47:38.849Z,81.54
2018-09-25T18:50:12.526Z,81.90
2018-09-25T18:52:46.168Z,82.17
2018-09-25T18:55:20.337Z,81.83
2018-09-25T18:57:53.951Z,81.77
2018-09-25T19:00:27.634Z,82.37
2018-09-25T19:03:01.090Z,82.54
2018-09-25T19:05:34.675Z,82.52
2018-09-25T19:08:08.345Z,83.03
2018-09-25T19:10:42.710Z,82.81
2018-09-25T19:13:17.807Z,82.88
2018-09-25T19:15:52.393Z,82.97
2018-09-25T19:18:25.992Z,83.69
2018-09-25T19:20:59.595Z,84.03
2018-09-25T19:23:33.128Z,83.75
2018-09-25T19:26:06.869Z,83.49
2018-09-25T19:28:40.406Z,83.58
2018-09-25T19:31:14.165Z,83.55
2018-09-25T19:33:47.881Z,83.84
2018-09-25T19:36:21.408Z,83.49
2018-09-25T19:38:55.216Z,84.08
2018-09-25T19:41:28.776Z,83.84
2018-09-25T19:44:02.465Z,83.83
2018-09-25T19:46:36.157Z,83.73
2018-09-25T19:49:10.563Z,83.88
2018-09-25T19:51:44.047Z,84.29
2018-09-25T19:54:17.636Z,83.65
2018-09-25T19:56:51.134Z,84.13
2018-09-25T19:59:24.700Z,84.10
2018-09-25T20:01:58.697Z,84.25
2018-09-25T20:04:32.421Z,84.27
2018-09-25T20:07:06.228Z,84.36
2018-09-25T20:09:40.071Z,84.69
2018-09-25T20:12:13.813Z,84.26
2018-09-25T20:14:48.177Z,84.12
2018-09-25T20:17:21.898Z,84.20
2018-09-25T20:19:55.437Z,84.16
2018-09-25T20:22:29.297Z,83.95
2018-09-25T20:25:03.051Z,84.04
2018-09-25T20:27:36.913Z,84.59
2018-09-25T20:30:10.757Z,84.36
2018-09-25T20:32:44.577Z,84.74
2018-09-25T20:35:18.017Z,84.73
2018-09-25T20:37:51.678Z,84.91
2018-09-25T20:40:25.182Z,84.96
2018-09-25T20:42:59.038Z,85.54
2018-09-25T20:45:32.685Z,85.68
2018-09-25T20:48:06.302Z,84.98
2018-09-25T20:50:39.851Z,84.79
2018-09-25T20:53:13.613Z,85.22
2018-09-25T20:55:47.158Z,84.84
2018-09-25T20:58:20.894Z,85.30
2018-09-25T21:00:54.360Z,84.81
2018-09-25T21:03:28.136Z,84.77
2018-09-25T21:06:01.853Z,85.54
2018-09-25T21:08:35.471Z,85.25
2018-09-25T21:11:09.161Z,85.19
2018-09-25T21:13:42.928Z,84.95
2018-09-25T21:16:16.471Z,85.25
2018-09-25T21:18:50.270Z,85.12
2018-09-25T21:21:23.968Z,85.35
2018-09-25T21:23:57.789Z,85.30
2018-09-25T21:26:31.341Z,84.69
2018-09-25T21:29:05.026Z,84.81
2018-09-25T21:31:38.791Z,85.17
2018-09-25T21:36:31.803Z,85.62
2018-09-25T21:39:05.736Z,85.22
2018-09-25T21:41:39.287Z,85.79
2018-09-25T21:44:12.841Z,85.36
2018-09-25T21:46:46.401Z,85.72
2018-09-25T21:49:19.905Z,85.88
2018-09-25T21:51:54.465Z,85.82
2018-09-25T21:54:27.966Z,86.19
2018-09-25T21:57:02.830Z,85.60
2018-09-25T21:59:36.567Z,85.92
2018-09-25T22:02:10.390Z,85.21
2018-09-25T22:04:44.374Z,85.78
2018-09-25T22:07:17.993Z,86.41
2018-09-25T22:09:51.799Z,86.19
2018-09-25T22:12:25.374Z,86.24
2018-09-25T22:14:58.993Z,86.13
2018-09-25T22:17:32.704Z,85.76
2018-09-25T22:20:06.530Z,85.73
2018-09-25T22:22:40.057Z,85.99
2018-09-25T22:25:13.965Z,85.93
2018-09-25T22:27:47.524Z,86.26
2018-09-25T22:30:21.338Z,86.21
2018-09-25T22:32:55.116Z,86.43
2018-09-25T22:35:28.835Z,85.76
2018-09-25T22:38:02.485Z,86.23
2018-09-25T22:40:36.265Z,86.46
2018-09-25T22:43:09.991Z,86.47
2018-09-25T22:45:43.496Z,86.11
2018-09-25T22:48:17.166Z,86.16
2018-09-25T22:50:50.961Z,86.32
2018-09-25T22:53:24.574Z,86.30
2018-09-25T22:55:58.386Z,86.25
2018-09-25T22:58:32.062Z,86.69
2018-09-25T23:01:05.903Z,86.96
2018-09-25T23:03:39.681Z,86.71
2018-09-25T23:06:13.484Z,86.36
2018-09-25T23:08:47.189Z,86.35
2018-09-25T23:11:20.983Z,86.51
2018-09-25T23:13:54.801Z,86.50
2018-09-25T23:16:28.869Z,86.26
2018-09-25T23:19:02.362Z,86.58
2018-09-25T23:21:36.120Z,86.87
2018-09-25T23:24:09.684Z,87.10
2018-09-25T23:26:43.400Z,86.66
2018-09-25T23:29:17.211Z,86.74
2018-09-25T23:31:51.041Z,85.96
2018-09-25T23:34:24.717Z,86.64
2018-09-25T23:36:58.561Z,86.98
2018-09-25T23:39:32.390Z,86.52
2018-09-25T23:42:06.131Z,86.98
2018-09-25T23:44:39.659Z,87.13
2018-09-25T23:47:12.307Z,86.47
2018-09-25T23:49:46.711Z,86.60
2018-09-25T23:52:33.418Z,86.39
2018-09-25T23:55:06.728Z,86.58
2018-09-25T23:57:42.425Z,86.81
